createdAt,value
2023-02-15T00:42:26.184Z,102884.53
2023-02-15T00:44:52.764Z,102880.56
2023-02-15T00:47:20.821Z,102864.50
2023-02-15T00:49:47.398Z,102873.31
2023-02-15T00:52:13.961Z,102874.16
2023-02-15T00:54:40.573Z,102872.16
2023-02-15T00:57:07.239Z,102863.50
2023-02-15T00:59:33.797Z,102865.50
2023-02-15T01:02:00.277Z,102868.72
2023-02-15T01:04:26.886Z,102860.94
2023-02-15T01:06:53.439Z,102852.88
2023-02-15T01:09:19.920Z,102853.91
2023-02-15T01:11:46.480Z,102851.34
2023-02-15T01:14:14.105Z,102845.38
2023-02-15T01:16:40.887Z,102839.81
2023-02-15T01:19:07.511Z,102852.81
2023-02-15T01:21:35.437Z,102846.56
2023-02-15T01:24:03.034Z,102849.53
2023-02-15T01:26:29.610Z,102850.25
2023-02-15T01:28:57.032Z,102840.44
2023-02-15T01:31:23.655Z,102835.66
2023-02-15T01:33:50.700Z,102836.50
2023-02-15T01:36:18.339Z,102828.66
2023-02-15T01:38:45.196Z,102829.28
2023-02-15T01:41:20.819Z,102825.59
2023-02-15T01:43:50.164Z,102829.28
2023-02-15T01:46:21.390Z,102833.00
2023-02-15T01:48:54.762Z,102831.78
2023-02-15T01:51:28.323Z,102837.88
2023-02-15T01:54:09.291Z,102823.47
2023-02-15T01:56:38.432Z,102824.78
2023-02-15T01:59:09.965Z,102825.09
2023-02-15T02:01:36.747Z,102822.88
2023-02-15T02:04:06.133Z,102828.28
2023-02-15T02:06:34.376Z,102819.16
2023-02-15T02:09:02.132Z,102812.34
2023-02-15T02:11:29.004Z,102809.81
2023-02-15T02:13:57.017Z,102807.25
2023-02-15T02:16:43.884Z,102811.13
2023-02-15T02:19:46.201Z,102809.81
2023-02-15T02:22:20.053Z,102815.81
2023-02-15T02:25:28.047Z,102813.25
2023-02-15T02:28:19.096Z,102799.03
2023-02-15T02:31:03.746Z,102790.25
2023-02-15T02:34:00.810Z,102786.50
2023-02-15T02:36:37.008Z,102790.38
2023-02-15T02:39:28.199Z,102789.94
2023-02-15T02:42:14.963Z,102778.84
2023-02-15T02:44:52.826Z,102785.75
2023-02-15T02:47:28.248Z,102772.03
2023-02-15T02:50:02.294Z,102773.91
2023-02-15T02:52:39.405Z,102780.16
2023-02-15T02:55:17.642Z,102771.69
2023-02-15T02:57:55.340Z,102775.06
2023-02-15T03:00:26.505Z,102770.69
2023-02-15T03:03:05.755Z,102766.56
2023-02-15T03:05:35.436Z,102767.56
2023-02-15T03:08:07.050Z,102761.31
2023-02-15T03:10:37.416Z,102753.25
2023-02-15T03:13:06.003Z,102761.75
2023-02-15T03:15:56.526Z,102762.47
2023-02-15T03:18:29.130Z,102763.78
2023-02-15T03:20:56.576Z,102757.81
2023-02-15T03:23:25.699Z,102745.22
2023-02-15T03:25:59.593Z,102748.84
2023-02-15T03:28:52.634Z,102751.16
2023-02-15T03:31:22.429Z,102743.34
2023-02-15T03:33:56.453Z,102731.06
2023-02-15T03:36:37.648Z,102734.09
2023-02-15T03:39:23.176Z,102742.22
2023-02-15T03:41:59.025Z,102741.66
2023-02-15T03:44:31.767Z,102727.59
2023-02-15T03:47:20.276Z,102741.97
2023-02-15T03:49:57.602Z,102735.56
2023-02-15T03:52:27.192Z,102734.75
2023-02-15T03:54:54.297Z,102735.59
2023-02-15T03:57:42.746Z,102731.66
2023-02-15T04:00:40.385Z,102727.34
2023-02-15T04:03:15.826Z,102726.50
2023-02-15T04:05:44.600Z,102729.66
2023-02-15T04:08:11.774Z,102715.34
2023-02-15T04:10:53.478Z,102724.56
2023-02-15T04:13:24.726Z,102724.00
2023-02-15T04:16:04.227Z,102722.44
2023-02-15T04:18:58.102Z,102726.00
2023-02-15T04:21:45.089Z,102729.16
2023-02-15T04:24:30.252Z,102722.91
2023-02-15T04:26:57.096Z,102721.53
2023-02-15T04:29:25.407Z,102725.22
2023-02-15T04:31:53.682Z,102726.50
2023-02-15T04:34:20.498Z,102725.25
2023-02-15T04:36:47.161Z,102715.47
2023-02-15T04:39:15.344Z,102730.97
2023-02-15T04:41:41.917Z,102718.84
2023-02-15T04:44:08.636Z,102714.19
2023-02-15T04:46:35.197Z,102720.22
2023-02-15T04:49:01.752Z,102710.75
2023-02-15T04:51:28.384Z,102704.38
2023-02-15T04:53:54.951Z,102707.94
2023-02-15T04:56:22.060Z,102698.13
2023-02-15T04:58:49.054Z,102695.16
2023-02-15T05:01:16.111Z,102689.78
2023-02-15T05:03:42.729Z,102692.88
2023-02-15T05:06:09.286Z,102694.31
2023-02-15T05:08:35.821Z,102682.66
2023-02-15T05:11:02.360Z,102688.25
2023-02-15T05:13:28.901Z,102690.97
2023-02-15T05:15:55.527Z,102693.28
2023-02-15T05:18:22.664Z,102696.66
2023-02-15T05:20:49.855Z,102698.94
2023-02-15T05:23:16.798Z,102692.38
2023-02-15T05:26:07.044Z,102703.78
2023-02-15T05:28:34.001Z,102694.75
2023-02-15T05:31:03.654Z,102696.28
2023-02-15T05:33:30.451Z,102693.94
2023-02-15T05:35:57.075Z,102692.00
2023-02-15T05:38:23.657Z,102688.72
2023-02-15T05:40:52.099Z,102691.81
2023-02-15T05:43:19.127Z,102687.03
2023-02-15T05:45:54.785Z,102690.16
2023-02-15T05:48:23.464Z,102685.66
2023-02-15T05:51:03.818Z,102691.88
2023-02-15T05:53:32.445Z,102684.66
2023-02-15T05:56:03.391Z,102687.59
2023-02-15T05:58:33.288Z,102690.66
2023-02-15T06:01:00.212Z,102691.59
2023-02-15T06:03:29.212Z,102688.22
2023-02-15T06:05:55.808Z,102687.34
2023-02-15T06:08:22.365Z,102685.41
2023-02-15T06:10:48.896Z,102689.09
2023-02-15T06:13:15.482Z,102686.69
2023-02-15T06:15:42.028Z,102688.84
2023-02-15T06:18:08.513Z,102686.69
2023-02-15T06:20:35.016Z,102697.72
2023-02-15T06:23:01.543Z,102688.53
2023-02-15T06:25:28.185Z,102689.28
2023-02-15T06:27:54.699Z,102690.69
2023-02-15T06:30:21.726Z,102692.97
2023-02-15T06:32:48.309Z,102685.31
2023-02-15T06:35:16.136Z,102688.59
2023-02-15T06:37:45.809Z,102683.75
2023-02-15T06:40:12.533Z,102684.91
2023-02-15T06:42:39.046Z,102680.50
2023-02-15T06:45:07.680Z,102684.34
2023-02-15T06:47:35.325Z,102683.31
2023-02-15T06:50:01.934Z,102686.00
2023-02-15T06:52:29.256Z,102681.97
2023-02-15T06:54:55.802Z,102674.47
2023-02-15T06:57:22.374Z,102670.97
2023-02-15T06:59:49.001Z,102670.66
2023-02-15T07:02:16.068Z,102671.97
2023-02-15T07:04:42.667Z,102660.06
2023-02-15T07:07:11.331Z,102658.34
2023-02-15T07:09:38.130Z,102664.19
2023-02-15T07:12:23.494Z,102659.34
2023-02-15T07:14:50.034Z,102652.50
2023-02-15T07:17:35.066Z,102661.84
2023-02-15T07:20:07.003Z,102664.22
2023-02-15T07:22:34.964Z,102665.56
2023-02-15T07:25:01.643Z,102661.84
2023-02-15T07:27:28.354Z,102658.59
2023-02-15T07:29:54.927Z,102655.63
2023-02-15T07:32:21.595Z,102659.00
2023-02-15T07:34:48.074Z,102643.00
2023-02-15T07:37:14.667Z,102655.78
2023-02-15T07:39:41.206Z,102654.06
2023-02-15T07:42:07.762Z,102652.78
2023-02-15T07:44:34.384Z,102646.13
2023-02-15T07:47:00.871Z,102653.94
2023-02-15T07:49:27.564Z,102652.78
2023-02-15T07:51:54.145Z,102660.53
2023-02-15T07:54:20.732Z,102654.00
2023-02-15T07:56:47.300Z,102651.34
2023-02-15T07:59:14.081Z,102650.50
2023-02-15T08:01:40.685Z,102643.38
2023-02-15T08:04:08.532Z,102659.00
2023-02-15T08:06:36.660Z,102646.50
2023-02-15T08:09:08.111Z,102641.34
2023-02-15T08:11:43.692Z,102645.03
2023-02-15T08:14:12.324Z,102645.59
2023-02-15T08:16:53.553Z,102654.81
2023-02-15T08:19:24.574Z,102649.13
2023-02-15T08:21:58.024Z,102638.25
2023-02-15T08:24:26.693Z,102643.91
2023-02-15T08:26:53.972Z,102639.09
2023-02-15T08:29:24.408Z,102648.06
2023-02-15T08:31:54.351Z,102639.09
2023-02-15T08:34:22.224Z,102631.84
2023-02-15T08:36:48.779Z,102630.41
2023-02-15T08:39:16.066Z,102634.41
2023-02-15T08:41:44.911Z,102630.66
2023-02-15T08:44:12.246Z,102631.41
2023-02-15T08:46:42.518Z,102624.09
2023-02-15T08:49:15.974Z,102631.59
2023-02-15T08:51:42.921Z,102619.75
2023-02-15T08:54:13.615Z,102618.88
2023-02-15T08:56:42.459Z,102629.34
2023-02-15T08:59:15.042Z,102617.66
2023-02-15T09:01:41.671Z,102612.38
2023-02-15T09:04:09.743Z,102613.94
2023-02-15T09:06:40.272Z,102606.50
2023-02-15T09:09:08.331Z,102607.91
2023-02-15T09:11:37.762Z,102613.31
2023-02-15T09:14:09.028Z,102610.84
2023-02-15T09:16:37.680Z,102605.28
2023-02-15T09:19:08.751Z,102597.56
2023-02-15T09:21:39.029Z,102599.09
2023-02-15T09:24:09.050Z,102598.66
2023-02-15T09:26:38.362Z,102594.75
2023-02-15T09:29:05.021Z,102584.66
2023-02-15T09:31:34.689Z,102584.03
2023-02-15T09:34:02.404Z,102578.47
2023-02-15T09:36:37.865Z,102577.34
2023-02-15T09:39:12.031Z,102578.22
2023-02-15T09:41:54.509Z,102584.88
2023-02-15T09:44:31.540Z,102582.34
2023-02-15T09:47:11.811Z,102587.66
2023-02-15T09:49:58.532Z,102593.59
2023-02-15T09:52:32.197Z,102570.75
2023-02-15T09:55:32.439Z,102593.66
2023-02-15T09:58:08.675Z,102597.78
2023-02-15T10:01:03.423Z,102604.72
2023-02-15T10:04:06.230Z,102602.25
2023-02-15T10:06:47.182Z,102600.41
2023-02-15T10:09:28.756Z,102609.44
2023-02-15T10:12:10.419Z,102599.13
2023-02-15T10:15:05.620Z,102593.75
2023-02-15T10:17:50.801Z,102596.81
2023-02-15T10:20:29.000Z,102594.50
2023-02-15T10:23:29.758Z,102597.53
2023-02-15T10:26:15.061Z,102598.41
2023-02-15T10:29:08.737Z,102604.03
2023-02-15T10:32:07.910Z,102590.84
2023-02-15T10:34:44.221Z,102594.44
2023-02-15T10:37:29.535Z,102591.75
2023-02-15T10:40:08.193Z,102592.78
2023-02-15T10:42:59.565Z,102593.09
2023-02-15T10:46:08.724Z,102589.41
2023-02-15T10:48:53.567Z,102596.53
2023-02-15T10:51:44.015Z,102587.53
2023-02-15T10:54:19.056Z,102580.91
2023-02-15T10:57:14.980Z,102576.16
2023-02-15T11:00:05.662Z,102577.69
2023-02-15T11:02:56.460Z,102579.22
2023-02-15T11:05:49.965Z,102572.06
2023-02-15T11:08:17.398Z,102581.09
2023-02-15T11:10:54.824Z,102573.59
2023-02-15T11:13:25.583Z,102574.38
2023-02-15T11:15:57.300Z,102571.13
2023-02-15T11:18:32.113Z,102564.22
2023-02-15T11:21:12.387Z,102567.31
2023-02-15T11:23:45.600Z,102566.66
2023-02-15T11:26:34.066Z,102567.47
2023-02-15T11:29:19.418Z,102560.44
2023-02-15T11:31:50.225Z,102562.31
2023-02-15T11:34:35.326Z,102544.88
2023-02-15T11:37:21.511Z,102544.94
2023-02-15T11:39:52.516Z,102536.88
2023-02-15T11:42:25.910Z,102522.78
2023-02-15T11:45:32.365Z,102521.47
2023-02-15T11:48:00.323Z,102515.09
2023-02-15T11:50:30.186Z,102517.66
2023-02-15T11:53:03.226Z,102514.88
2023-02-15T11:55:30.813Z,102506.63
2023-02-15T11:58:09.732Z,102516.31
2023-02-15T12:00:53.205Z,102516.59
2023-02-15T12:03:39.135Z,102516.19
2023-02-15T12:06:12.747Z,102507.16
2023-02-15T12:08:44.039Z,102500.16
2023-02-15T12:11:16.322Z,102500.28
2023-02-15T12:14:06.259Z,102496.81
2023-02-15T12:16:49.640Z,102489.94
2023-02-15T12:19:33.903Z,102485.53
2023-02-15T12:22:03.424Z,102493.84
2023-02-15T12:24:39.084Z,102483.84
2023-02-15T12:27:15.756Z,102479.47
2023-02-15T12:29:46.849Z,102474.47
2023-02-15T12:32:23.632Z,102478.28
2023-02-15T12:34:52.414Z,102470.78
2023-02-15T12:37:23.937Z,102493.00
2023-02-15T12:39:58.913Z,102477.59
2023-02-15T12:42:28.195Z,102469.81
2023-02-15T12:45:03.359Z,102464.13
2023-02-15T12:47:32.278Z,102474.84
2023-02-15T12:50:24.423Z,102463.44
2023-02-15T12:52:52.423Z,102456.38
2023-02-15T12:55:25.078Z,102451.28
2023-02-15T12:58:16.998Z,102446.63
2023-02-15T13:00:43.639Z,102443.09
2023-02-15T13:03:19.081Z,102448.72
2023-02-15T13:05:49.793Z,102441.41
2023-02-15T13:08:50.656Z,102442.22
2023-02-15T13:11:31.334Z,102438.81
2023-02-15T13:14:16.788Z,102438.69
2023-02-15T13:16:45.332Z,102430.28
2023-02-15T13:19:17.842Z,102431.81
2023-02-15T13:21:48.112Z,102426.84
2023-02-15T13:24:30.530Z,102423.72
2023-02-15T13:27:13.130Z,102420.38
2023-02-15T13:29:43.886Z,102421.59
2023-02-15T13:32:23.736Z,102425.41
2023-02-15T13:34:50.442Z,102418.25
2023-02-15T13:37:26.455Z,102420.41
2023-02-15T13:40:07.857Z,102413.69
2023-02-15T13:42:42.335Z,102419.41
2023-02-15T13:45:31.614Z,102405.31
2023-02-15T13:48:21.109Z,102395.41
2023-02-15T13:50:53.471Z,102399.84
2023-02-15T13:53:38.312Z,102403.19
2023-02-15T13:56:36.918Z,102403.28
2023-02-15T13:59:13.213Z,102408.28
2023-02-15T14:02:19.791Z,102400.72
2023-02-15T14:05:11.700Z,102417.03
2023-02-15T14:07:50.209Z,102421.50
2023-02-15T14:10:41.091Z,102420.66
2023-02-15T14:13:29.036Z,102426.19
2023-02-15T14:16:18.508Z,102420.91
2023-02-15T14:19:11.468Z,102416.09
2023-02-15T14:21:50.134Z,102414.41
2023-02-15T14:24:47.255Z,102420.28
2023-02-15T14:27:48.361Z,102420.28
2023-02-15T14:30:21.523Z,102419.44
2023-02-15T14:32:59.226Z,102409.72
2023-02-15T14:35:29.147Z,102408.91
2023-02-15T14:38:02.493Z,102408.03
2023-02-15T14:41:01.449Z,102411.00
2023-02-15T14:43:46.196Z,102411.00
2023-02-15T14:46:47.006Z,102417.75
2023-02-15T14:49:17.365Z,102410.16
2023-02-15T14:51:43.984Z,102417.75
2023-02-15T14:54:33.611Z,102402.16
2023-02-15T14:57:03.083Z,102408.00
2023-02-15T15:00:07.728Z,102417.72
2023-02-15T15:02:40.249Z,102417.91
2023-02-15T15:05:19.265Z,102423.16
2023-02-15T15:07:53.398Z,102425.66
2023-02-15T15:10:21.298Z,102412.22
2023-02-15T15:12:53.463Z,102419.78
2023-02-15T15:15:31.986Z,102409.28
2023-02-15T15:18:04.602Z,102414.94
2023-02-15T15:20:42.777Z,102416.88
2023-02-15T15:23:45.467Z,102404.84
2023-02-15T15:26:30.265Z,102402.97
2023-02-15T15:28:59.848Z,102387.31
2023-02-15T15:32:00.923Z,102408.63
2023-02-15T15:34:44.115Z,102405.25
2023-02-15T15:37:10.628Z,102412.56
2023-02-15T15:39:55.261Z,102415.06
2023-02-15T15:42:21.729Z,102404.56
2023-02-15T15:45:15.440Z,102404.97
2023-02-15T15:48:09.572Z,102397.38
2023-02-15T15:50:41.298Z,102391.50
2023-02-15T15:53:19.334Z,102389.38
2023-02-15T15:55:49.747Z,102397.38
2023-02-15T15:58:19.770Z,102395.06
2023-02-15T16:00:51.442Z,102401.56
2023-02-15T16:03:26.791Z,102397.38
2023-02-15T16:05:57.108Z,102395.91
2023-02-15T16:08:39.381Z,102405.97
2023-02-15T16:11:16.636Z,102394.41
2023-02-15T16:13:44.261Z,102383.28
2023-02-15T16:16:14.237Z,102386.81
2023-02-15T16:18:43.244Z,102395.41
2023-02-15T16:21:19.436Z,102395.41
2023-02-15T16:23:52.006Z,102388.06
2023-02-15T16:26:44.423Z,102393.53
2023-02-15T16:29:19.857Z,102381.31
2023-02-15T16:32:27.921Z,102391.44
2023-02-15T16:35:02.910Z,102389.91
2023-02-15T16:37:34.301Z,102394.72
2023-02-15T16:40:01.937Z,102398.53
2023-02-15T16:42:28.577Z,102398.91
2023-02-15T16:45:08.645Z,102404.19
2023-02-15T16:47:42.230Z,102406.91
2023-02-15T16:50:19.594Z,102404.38
2023-02-15T16:52:46.281Z,102403.75
2023-02-15T16:55:23.032Z,102411.50
2023-02-15T16:57:50.587Z,102400.56
2023-02-15T17:00:24.142Z,102408.09
2023-02-15T17:02:58.804Z,102403.72
2023-02-15T17:05:34.469Z,102404.75
2023-02-15T17:08:06.673Z,102388.78
2023-02-15T17:10:42.708Z,102397.56
2023-02-15T17:13:14.591Z,102406.78
2023-02-15T17:15:45.415Z,102406.47
2023-02-15T17:18:19.578Z,102391.66
2023-02-15T17:20:48.559Z,102402.59
2023-02-15T17:23:36.815Z,102401.31
2023-02-15T17:26:16.402Z,102407.34
2023-02-15T17:28:53.542Z,102412.63
2023-02-15T17:31:21.732Z,102404.81
2023-02-15T17:33:48.911Z,102401.84
2023-02-15T17:36:20.287Z,102399.31
2023-02-15T17:38:58.769Z,102400.78
2023-02-15T17:41:26.927Z,102397.84
2023-02-15T17:43:53.543Z,102390.03
2023-02-15T17:46:23.544Z,102395.28
2023-02-15T17:48:52.806Z,102397.56
2023-02-15T17:51:20.551Z,102396.09
2023-02-15T17:54:05.618Z,102389.78
2023-02-15T17:56:33.308Z,102400.03
2023-02-15T17:59:00.049Z,102400.44
2023-02-15T18:01:45.334Z,102415.53
2023-02-15T18:04:32.245Z,102410.34
2023-02-15T18:07:18.343Z,102407.34
2023-02-15T18:10:03.731Z,102400.84
2023-02-15T18:12:37.748Z,102405.00
2023-02-15T18:15:05.857Z,102399.97
2023-02-15T18:17:43.138Z,102414.44
2023-02-15T18:20:19.181Z,102419.00
2023-02-15T18:22:49.126Z,102419.00
2023-02-15T18:25:17.745Z,102416.03
2023-02-15T18:27:44.342Z,102423.16
2023-02-15T18:30:16.249Z,102432.78
2023-02-15T18:32:43.373Z,102423.16
2023-02-15T18:35:16.199Z,102426.94
2023-02-15T18:37:43.081Z,102419.28
2023-02-15T18:40:16.085Z,102426.03
2023-02-15T18:42:47.086Z,102412.38
2023-02-15T18:45:15.244Z,102428.44
2023-02-15T18:47:41.754Z,102411.97
2023-02-15T18:50:08.948Z,102423.34
2023-02-15T18:52:37.922Z,102425.38
2023-02-15T18:55:19.360Z,102424.59
2023-02-15T18:57:47.291Z,102417.38
2023-02-15T19:00:19.404Z,102422.44
2023-02-15T19:02:46.078Z,102420.78
2023-02-15T19:05:13.425Z,102425.56
2023-02-15T19:07:40.666Z,102429.72
2023-02-15T19:10:13.453Z,102423.63
2023-02-15T19:12:40.041Z,102430.97
2023-02-15T19:15:06.840Z,102431.53
2023-02-15T19:17:33.395Z,102437.63
2023-02-15T19:19:59.888Z,102438.41
2023-02-15T19:22:30.066Z,102441.31
2023-02-15T19:24:59.871Z,102443.22
2023-02-15T19:27:29.925Z,102441.13
2023-02-15T19:29:59.243Z,102435.69
2023-02-15T19:32:26.147Z,102443.59
2023-02-15T19:34:52.687Z,102437.28
2023-02-15T19:37:42.240Z,102453.06
2023-02-15T19:40:25.599Z,102441.31
2023-02-15T19:42:52.302Z,102433.06
2023-02-15T19:45:26.067Z,102431.47
2023-02-15T19:47:53.896Z,102431.19
2023-02-15T19:50:24.084Z,102433.91
2023-02-15T19:52:51.086Z,102418.13
2023-02-15T19:55:37.965Z,102427.91
2023-02-15T19:58:12.057Z,102426.03
2023-02-15T20:00:38.603Z,102419.94
2023-02-15T20:03:05.281Z,102409.56
2023-02-15T20:05:34.831Z,102412.50
2023-02-15T20:08:03.916Z,102414.56
2023-02-15T20:10:31.717Z,102420.97
2023-02-15T20:12:58.565Z,102409.78
2023-02-15T20:15:34.462Z,102423.19
2023-02-15T20:18:06.783Z,102419.00
2023-02-15T20:20:51.672Z,102419.84
2023-02-15T20:23:18.391Z,102421.03
2023-02-15T20:25:45.273Z,102424.63
2023-02-15T20:28:23.126Z,102429.81
2023-02-15T20:30:50.246Z,102434.22
2023-02-15T20:33:18.138Z,102432.72
2023-02-15T20:35:45.913Z,102427.44
2023-02-15T20:38:32.886Z,102431.41
2023-02-15T20:41:19.566Z,102415.34
2023-02-15T20:43:46.187Z,102420.22
2023-02-15T20:46:12.722Z,102419.47
2023-02-15T20:48:39.298Z,102429.19
2023-02-15T20:51:10.312Z,102432.75
2023-02-15T20:53:36.868Z,102420.34
2023-02-15T20:56:03.710Z,102423.66
2023-02-15T20:58:30.828Z,102419.69
2023-02-15T21:00:58.913Z,102420.72
2023-02-15T21:03:30.814Z,102425.06
2023-02-15T21:05:58.273Z,102422.81
2023-02-15T21:08:25.498Z,102424.78
2023-02-15T21:10:53.225Z,102428.03
2023-02-15T21:13:25.680Z,102424.22
2023-02-15T21:15:53.928Z,102421.50
2023-02-15T21:18:27.357Z,102416.03
2023-02-15T21:20:56.753Z,102413.09
2023-02-15T21:23:26.291Z,102404.69
2023-02-15T21:25:55.858Z,102413.41
2023-02-15T21:28:24.615Z,102423.47
2023-02-15T21:30:54.133Z,102416.22
2023-02-15T21:33:21.026Z,102406.28
2023-02-15T21:35:50.846Z,102404.78
2023-02-15T21:38:21.189Z,102406.38
2023-02-15T21:40:49.094Z,102409.28
2023-02-15T21:43:39.256Z,102404.97
2023-02-15T21:46:32.943Z,102422.69
2023-02-15T21:48:59.608Z,102414.25
2023-02-15T21:51:45.072Z,102426.66
2023-02-15T21:54:13.572Z,102429.16
2023-02-15T21:56:41.963Z,102414.44
2023-02-15T21:59:12.829Z,102425.97
2023-02-15T22:01:42.149Z,102427.97
2023-02-15T22:04:14.460Z,102426.91
2023-02-15T22:06:41.397Z,102416.31
2023-02-15T22:09:19.482Z,102430.41
2023-02-15T22:11:46.669Z,102416.19
2023-02-15T22:14:34.220Z,102428.06
2023-02-15T22:17:00.788Z,102419.78
2023-02-15T22:19:28.794Z,102422.03
2023-02-15T22:21:55.400Z,102421.94
2023-02-15T22:24:22.009Z,102433.59
2023-02-15T22:26:48.537Z,102426.16
2023-02-15T22:29:18.336Z,102429.91
2023-02-15T22:31:45.226Z,102421.94
2023-02-15T22:34:27.066Z,102428.47
2023-02-15T22:36:54.165Z,102420.59
2023-02-15T22:39:22.181Z,102414.31
2023-02-15T22:41:49.107Z,102403.13
2023-02-15T22:44:24.034Z,102409.88
2023-02-15T22:46:51.447Z,102404.06
2023-02-15T22:49:18.617Z,102403.59
2023-02-15T22:51:49.596Z,102408.84
2023-02-15T22:54:17.517Z,102414.13
2023-02-15T22:56:51.531Z,102411.47
2023-02-15T22:59:29.604Z,102416.25
2023-02-15T23:01:57.291Z,102419.88
2023-02-15T23:04:26.422Z,102424.41
2023-02-15T23:06:55.190Z,102421.03
2023-02-15T23:09:22.357Z,102421.31
2023-02-15T23:11:50.810Z,102423.44
2023-02-15T23:14:27.467Z,102423.34
2023-02-15T23:16:54.436Z,102420.19
2023-02-15T23:19:21.504Z,102417.63
2023-02-15T23:21:48.245Z,102412.75
2023-02-15T23:24:26.068Z,102418.25
2023-02-15T23:26:53.341Z,102414.97
2023-02-15T23:29:23.885Z,102416.56
2023-02-15T23:31:53.192Z,102406.88
2023-02-15T23:34:37.958Z,102418.38
2023-02-15T23:37:04.452Z,102410.28
2023-02-15T23:39:49.696Z,102410.28
2023-02-15T23:42:20.173Z,102400.13
2023-02-15T23:44:47.998Z,102411.38
2023-02-15T23:47:47.199Z,102414.28
2023-02-15T23:50:28.801Z,102415.63
2023-02-15T23:52:56.369Z,102410.72
2023-02-15T23:55:27.450Z,102415.84
2023-02-15T23:57:54.091Z,102412.75
